Time;durP1;ratioP1;P1;durP2;ratioP2;P2;SDS_P1;SDS_P2;PMS_P1;PMS_P2;Temp;Humidity;BMP_temperature;BMP_pressure;BME280_temperature;BME280_humidity;BME280_pressure;Samples;Min_cycle;Max_cycle;Signal;HPM_P1;HPM_P2
2023/03/19 00:00:21;;;;;;;4.63;2.72;;;;;;;;;;5036460;28;20070;-64
2023/03/19 00:02:50;;;;;;;4.55;3.33;;;;;;;;;;5064068;28;20086;-63
2023/03/19 00:05:15;;;;;;;5.90;3.05;;;;;;;;;;5038757;28;20131;-66
2023/03/19 00:07:40;;;;;;;3.55;2.53;;;;;;;;;;5036645;28;20127;-65
2023/03/19 00:10:06;;;;;;;4.30;2.70;;;;;;;;;;5014430;28;20119;-65
2023/03/19 00:12:31;;;;;;;4.30;2.85;;;;;;;;;;5016352;28;20049;-64
2023/03/19 00:14:56;;;;;;;4.43;2.93;;;;;;;;;;5021454;28;20153;-64
2023/03/19 00:17:22;;;;;;;4.65;3.03;;;;;;;;;;5043964;28;20295;-63
2023/03/19 00:19:47;;;;;;;3.53;2.53;;;;;;;;;;5043473;28;20053;-66
2023/03/19 00:22:12;;;;;;;4.82;3.03;;;;;;;;;;5016021;28;20275;-65
2023/03/19 00:24:38;;;;;;;4.07;2.80;;;;;;;;;;4983516;28;1140935;-65
2023/03/19 00:27:03;;;;;;;4.10;2.92;;;;;;;;;;5043735;28;20055;-64
2023/03/19 00:29:28;;;;;;;3.72;2.88;;;;;;;;;;5054088;28;20119;-64
2023/03/19 00:31:53;;;;;;;3.67;2.70;;;;;;;;;;5018654;28;20088;-64
2023/03/19 00:34:19;;;;;;;5.05;3.30;;;;;;;;;;5052743;28;20037;-65
2023/03/19 00:36:45;;;;;;;5.07;3.25;;;;;;;;;;5046736;28;20170;-65
2023/03/19 00:39:10;;;;;;;4.38;2.95;;;;;;;;;;5052759;28;20413;-66
2023/03/19 00:41:35;;;;;;;4.15;2.92;;;;;;;;;;5042950;28;20035;-63
2023/03/19 00:44:01;;;;;;;3.73;2.80;;;;;;;;;;5051824;28;20029;-63
2023/03/19 00:46:26;;;;;;;4.78;3.25;;;;;;;;;;5037246;28;20737;-67
2023/03/19 00:48:54;;;;;;;5.00;3.00;;;;;;;;;;5017946;28;20048;-64
2023/03/19 00:51:19;;;;;;;4.90;3.20;;;;;;;;;;5044278;28;20041;-63
2023/03/19 00:53:45;;;;;;;4.95;3.40;;;;;;;;;;5030055;28;20049;-64
2023/03/19 00:56:11;;;;;;;4.47;3.00;;;;;;;;;;5045078;28;20063;-64
2023/03/19 00:58:37;;;;;;;4.75;3.17;;;;;;;;;;5022155;28;20033;-64
2023/03/19 01:01:03;;;;;;;4.38;3.28;;;;;;;;;;5027521;28;20045;-68
2023/03/19 01:03:28;;;;;;;4.47;2.95;;;;;;;;;;5015517;28;20052;-65
2023/03/19 01:05:53;;;;;;;4.40;3.27;;;;;;;;;;5037996;28;20135;-64
2023/03/19 01:08:18;;;;;;;5.03;3.63;;;;;;;;;;5032436;28;20830;-65
2023/03/19 01:10:44;;;;;;;4.93;3.45;;;;;;;;;;5008329;28;20672;-64
2023/03/19 01:13:09;;;;;;;5.15;3.15;;;;;;;;;;5001438;28;20058;-64
2023/03/19 01:15:38;;;;;;;4.22;3.25;;;;;;;;;;5019721;28;20072;-64
2023/03/19 01:18:03;;;;;;;4.10;3.03;;;;;;;;;;5040001;28;20033;-66
2023/03/19 01:20:29;;;;;;;4.35;3.20;;;;;;;;;;5008409;28;20160;-66
2023/03/19 01:22:54;;;;;;;4.63;3.15;;;;;;;;;;5020683;28;20068;-65
2023/03/19 01:25:20;;;;;;;4.28;2.88;;;;;;;;;;5007929;28;20128;-66
2023/03/19 01:27:45;;;;;;;4.18;3.00;;;;;;;;;;4985528;28;20045;-65
2023/03/19 01:30:10;;;;;;;5.20;3.47;;;;;;;;;;5027964;28;20505;-66
2023/03/19 01:32:36;;;;;;;4.50;3.03;;;;;;;;;;5021686;28;20075;-64
2023/03/19 01:35:01;;;;;;;4.68;3.22;;;;;;;;;;5014323;28;20047;-64
2023/03/19 01:37:27;;;;;;;5.10;3.47;;;;;;;;;;5001214;28;20047;-65
2023/03/19 01:39:52;;;;;;;3.83;3.33;;;;;;;;;;5026428;28;20142;-65
2023/03/19 01:42:17;;;;;;;5.53;3.97;;;;;;;;;;5002316;28;20048;-64
2023/03/19 01:44:43;;;;;;;4.28;3.30;;;;;;;;;;5027028;28;20049;-65
2023/03/19 01:47:38;;;;;;;4.00;2.90;;;;;;;;;;5004493;28;20036;-67
2023/03/19 01:50:03;;;;;;;4.88;3.38;;;;;;;;;;5009239;28;20057;-65
2023/03/19 01:52:30;;;;;;;5.57;3.78;;;;;;;;;;5038377;28;20949;-65
2023/03/19 01:54:55;;;;;;;4.97;3.50;;;;;;;;;;5040299;28;20163;-64
2023/03/19 01:57:20;;;;;;;4.67;3.47;;;;;;;;;;5007443;28;20061;-65
2023/03/19 01:59:46;;;;;;;5.00;3.60;;;;;;;;;;5002157;28;20688;-65
2023/03/19 02:02:18;;;;;;;4.82;3.28;;;;;;;;;;5020844;28;20291;-65
2023/03/19 02:04:43;;;;;;;5.25;3.55;;;;;;;;;;5027676;28;20067;-64
2023/03/19 02:07:08;;;;;;;4.50;3.33;;;;;;;;;;5026559;28;20433;-65
2023/03/19 02:09:34;;;;;;;4.03;3.17;;;;;;;;;;5009369;28;20101;-64
2023/03/19 02:12:00;;;;;;;6.10;3.85;;;;;;;;;;5023694;28;20053;-64
2023/03/19 02:14:25;;;;;;;5.80;3.40;;;;;;;;;;5027229;28;20421;-65
2023/03/19 02:16:51;;;;;;;4.37;3.30;;;;;;;;;;5028406;28;20017;-65
2023/03/19 02:19:17;;;;;;;5.25;3.60;;;;;;;;;;5020962;28;20777;-65
2023/03/19 02:21:42;;;;;;;5.00;3.00;;;;;;;;;;5004322;28;20057;-63
2023/03/19 02:24:11;;;;;;;5.30;3.43;;;;;;;;;;5012214;28;20541;-66
2023/03/19 02:26:36;;;;;;;5.20;3.50;;;;;;;;;;5001450;28;20272;-65
2023/03/19 02:29:03;;;;;;;5.20;3.50;;;;;;;;;;4991788;28;20058;-65
2023/03/19 02:31:28;;;;;;;4.55;3.22;;;;;;;;;;5005678;28;20117;-67
2023/03/19 02:33:56;;;;;;;5.53;3.77;;;;;;;;;;5019722;28;20176;-65
2023/03/19 02:36:22;;;;;;;4.80;3.30;;;;;;;;;;5031862;28;20264;-64
2023/03/19 02:38:47;;;;;;;5.35;3.95;;;;;;;;;;5000882;28;20542;-65
2023/03/19 02:41:12;;;;;;;4.50;3.20;;;;;;;;;;5004571;28;20013;-64
2023/03/19 02:43:38;;;;;;;4.65;3.30;;;;;;;;;;5000210;28;20017;-65
2023/03/19 02:46:04;;;;;;;5.22;3.83;;;;;;;;;;4982250;28;20112;-65
2023/03/19 02:48:31;;;;;;;4.80;3.33;;;;;;;;;;4987666;28;20022;-65
2023/03/19 02:50:56;;;;;;;4.45;3.45;;;;;;;;;;5014522;28;20026;-65
2023/03/19 02:53:21;;;;;;;4.15;3.33;;;;;;;;;;5038238;28;20037;-64
2023/03/19 02:55:47;;;;;;;5.35;3.97;;;;;;;;;;5028317;28;20036;-65
2023/03/19 02:58:12;;;;;;;4.90;3.30;;;;;;;;;;5025152;28;20561;-65
2023/03/19 03:00:37;;;;;;;5.27;3.50;;;;;;;;;;5027864;28;20274;-65
2023/03/19 03:03:02;;;;;;;4.90;3.40;;;;;;;;;;5020308;28;20016;-64
2023/03/19 03:05:28;;;;;;;6.40;3.80;;;;;;;;;;5010365;28;20283;-66
2023/03/19 03:07:53;;;;;;;4.45;3.22;;;;;;;;;;5018934;28;20355;-64
2023/03/19 03:10:18;;;;;;;5.20;3.80;;;;;;;;;;4996028;28;20029;-66
2023/03/19 03:12:45;;;;;;;5.03;3.70;;;;;;;;;;5037480;28;20083;-66
2023/03/19 03:15:10;;;;;;;4.65;3.67;;;;;;;;;;5010657;28;20045;-64
2023/03/19 03:17:36;;;;;;;4.87;3.53;;;;;;;;;;5030781;28;20032;-65
2023/03/19 03:20:02;;;;;;;5.40;3.85;;;;;;;;;;5014146;28;20321;-66
2023/03/19 03:22:28;;;;;;;6.25;3.80;;;;;;;;;;5006253;28;20521;-66
2023/03/19 03:24:53;;;;;;;5.85;3.60;;;;;;;;;;5019650;28;20045;-65
2023/03/19 03:27:18;;;;;;;4.77;3.10;;;;;;;;;;4986375;28;20529;-65
2023/03/19 03:29:44;;;;;;;5.53;3.53;;;;;;;;;;4987293;28;20318;-65
2023/03/19 03:32:09;;;;;;;5.32;3.60;;;;;;;;;;5009205;28;20076;-65
2023/03/19 03:34:35;;;;;;;4.60;3.42;;;;;;;;;;5005166;28;20041;-64
2023/03/19 03:37:00;;;;;;;5.20;3.80;;;;;;;;;;5008472;28;20045;-66
2023/03/19 03:39:26;;;;;;;5.68;3.80;;;;;;;;;;5033555;28;20104;-65
2023/03/19 03:41:51;;;;;;;5.97;3.35;;;;;;;;;;5012568;28;20136;-62
2023/03/19 03:44:17;;;;;;;4.55;3.70;;;;;;;;;;5019701;28;20045;-65
2023/03/19 03:46:42;;;;;;;4.95;3.45;;;;;;;;;;5005258;28;20120;-64
2023/03/19 03:49:07;;;;;;;4.80;3.08;;;;;;;;;;5029365;28;20118;-64
2023/03/19 03:51:32;;;;;;;4.13;3.35;;;;;;;;;;5029960;28;20091;-64
2023/03/19 03:53:58;;;;;;;5.38;3.65;;;;;;;;;;5037051;28;20486;-65
2023/03/19 03:56:23;;;;;;;4.80;3.25;;;;;;;;;;5021728;28;20108;-64
2023/03/19 03:58:48;;;;;;;4.85;3.33;;;;;;;;;;5018300;28;20502;-64
2023/03/19 04:01:14;;;;;;;4.40;3.45;;;;;;;;;;5020475;28;20728;-65
2023/03/19 04:03:40;;;;;;;4.55;3.58;;;;;;;;;;5019609;28;20042;-64
2023/03/19 04:06:05;;;;;;;5.03;3.55;;;;;;;;;;5027824;28;20092;-66
2023/03/19 04:08:31;;;;;;;5.22;3.78;;;;;;;;;;5011675;28;20053;-64
2023/03/19 04:10:57;;;;;;;4.75;3.95;;;;;;;;;;4993471;28;20049;-64
2023/03/19 04:13:22;;;;;;;5.05;3.92;;;;;;;;;;5016204;28;20490;-64
2023/03/19 04:15:48;;;;;;;4.95;3.70;;;;;;;;;;5016878;28;20041;-64
2023/03/19 04:18:13;;;;;;;4.72;3.30;;;;;;;;;;5007269;28;20123;-65
2023/03/19 04:20:40;;;;;;;4.57;3.10;;;;;;;;;;5008797;28;20056;-64
2023/03/19 04:23:05;;;;;;;4.28;3.20;;;;;;;;;;4999935;28;20544;-63
2023/03/19 04:25:30;;;;;;;4.83;3.83;;;;;;;;;;4995181;28;20056;-65
2023/03/19 04:27:56;;;;;;;4.47;3.40;;;;;;;;;;5030032;28;20716;-66
2023/03/19 04:30:21;;;;;;;5.20;3.63;;;;;;;;;;5024786;28;20577;-65
2023/03/19 04:32:46;;;;;;;5.10;3.43;;;;;;;;;;4999937;28;20462;-65
2023/03/19 04:35:12;;;;;;;4.87;3.23;;;;;;;;;;5015665;28;20315;-63
2023/03/19 04:37:37;;;;;;;5.13;3.57;;;;;;;;;;5031771;28;20286;-64
2023/03/19 04:40:02;;;;;;;5.72;3.55;;;;;;;;;;5024362;28;20284;-66
2023/03/19 04:42:28;;;;;;;5.15;3.47;;;;;;;;;;4999339;28;20512;-64
2023/03/19 04:44:53;;;;;;;5.13;3.50;;;;;;;;;;4991221;28;20034;-65
2023/03/19 04:47:18;;;;;;;5.03;3.67;;;;;;;;;;5003307;28;20292;-64
2023/03/19 04:49:43;;;;;;;6.17;3.70;;;;;;;;;;5013684;28;20033;-65
2023/03/19 04:52:09;;;;;;;5.63;3.70;;;;;;;;;;5005772;28;20316;-66
2023/03/19 04:54:34;;;;;;;4.60;3.28;;;;;;;;;;5011950;28;20299;-64
2023/03/19 04:56:59;;;;;;;5.53;4.03;;;;;;;;;;5019288;28;20592;-65
2023/03/19 04:59:25;;;;;;;5.82;3.47;;;;;;;;;;5013241;28;20165;-64
2023/03/19 05:01:50;;;;;;;4.80;3.28;;;;;;;;;;4996705;28;20037;-65
2023/03/19 05:04:16;;;;;;;5.00;3.80;;;;;;;;;;5012594;28;20588;-65
2023/03/19 05:06:41;;;;;;;4.40;3.30;;;;;;;;;;5024842;28;20868;-66
2023/03/19 05:09:07;;;;;;;5.63;3.25;;;;;;;;;;4997100;28;20041;-65
2023/03/19 05:11:32;;;;;;;5.97;3.90;;;;;;;;;;4999111;28;20041;-65
2023/03/19 05:13:57;;;;;;;5.55;3.88;;;;;;;;;;5028529;28;20394;-65
2023/03/19 05:16:22;;;;;;;5.23;3.90;;;;;;;;;;4994465;28;20042;-63
2023/03/19 05:18:48;;;;;;;4.80;3.63;;;;;;;;;;5019358;28;20280;-64
2023/03/19 05:21:14;;;;;;;4.40;3.28;;;;;;;;;;5017286;28;20294;-65
2023/03/19 05:23:40;;;;;;;5.13;3.50;;;;;;;;;;5055419;28;20033;-63
2023/03/19 05:26:05;;;;;;;5.07;3.67;;;;;;;;;;5032338;28;20049;-66
2023/03/19 05:28:30;;;;;;;4.93;3.67;;;;;;;;;;5018617;28;20017;-63
2023/03/19 05:30:56;;;;;;;4.50;3.47;;;;;;;;;;5029849;28;20397;-65
2023/03/19 05:33:21;;;;;;;4.93;3.70;;;;;;;;;;5013819;28;20128;-65
2023/03/19 05:35:47;;;;;;;5.60;3.95;;;;;;;;;;5028199;28;20064;-63
2023/03/19 05:38:12;;;;;;;5.45;3.47;;;;;;;;;;5009118;28;20524;-64
2023/03/19 05:40:40;;;;;;;4.38;3.30;;;;;;;;;;5003293;28;20053;-64
2023/03/19 05:43:06;;;;;;;5.88;3.78;;;;;;;;;;5014480;23;20121;-64
2023/03/19 05:45:31;;;;;;;5.03;3.50;;;;;;;;;;5009941;28;20116;-65
2023/03/19 05:47:56;;;;;;;4.60;3.80;;;;;;;;;;5014190;28;20053;-64
2023/03/19 05:50:22;;;;;;;5.13;2.93;;;;;;;;;;5030312;28;20087;-64
2023/03/19 05:52:47;;;;;;;6.43;3.83;;;;;;;;;;5034286;28;20318;-63
2023/03/19 05:55:12;;;;;;;4.23;3.67;;;;;;;;;;5048863;28;20394;-66
2023/03/19 05:57:38;;;;;;;4.53;3.30;;;;;;;;;;5015541;28;20743;-66
2023/03/19 06:00:05;;;;;;;4.95;3.63;;;;;;;;;;5034170;28;20080;-64
2023/03/19 06:02:30;;;;;;;4.00;3.20;;;;;;;;;;5048417;22;20126;-65
2023/03/19 06:04:55;;;;;;;4.00;3.17;;;;;;;;;;5034916;28;20049;-70
2023/03/19 06:07:21;;;;;;;4.70;3.40;;;;;;;;;;5052297;28;20280;-71
2023/03/19 06:09:46;;;;;;;5.20;3.60;;;;;;;;;;5027955;28;20358;-65
2023/03/19 06:12:11;;;;;;;4.60;3.33;;;;;;;;;;5014337;28;20295;-65
2023/03/19 06:14:36;;;;;;;5.30;3.53;;;;;;;;;;5045536;28;20825;-69
2023/03/19 06:17:02;;;;;;;4.73;3.50;;;;;;;;;;5016975;28;20029;-69
2023/03/19 06:19:27;;;;;;;5.25;3.75;;;;;;;;;;5040572;28;20294;-70
2023/03/19 06:21:53;;;;;;;4.47;3.40;;;;;;;;;;5035719;28;20437;-73
2023/03/19 06:24:18;;;;;;;4.77;3.43;;;;;;;;;;5034270;28;20476;-70
2023/03/19 06:26:43;;;;;;;4.47;3.50;;;;;;;;;;5018153;28;20767;-70
2023/03/19 06:29:08;;;;;;;4.57;3.58;;;;;;;;;;5034843;28;20671;-64
2023/03/19 06:31:34;;;;;;;5.22;3.83;;;;;;;;;;5033237;28;20685;-72
2023/03/19 06:33:59;;;;;;;6.65;4.07;;;;;;;;;;5050079;28;20059;-68
2023/03/19 06:36:25;;;;;;;4.20;3.20;;;;;;;;;;5020359;28;20100;-69
2023/03/19 06:38:50;;;;;;;4.50;3.10;;;;;;;;;;5037352;28;20127;-71
2023/03/19 06:41:15;;;;;;;4.57;3.47;;;;;;;;;;5038783;28;20299;-65
2023/03/19 06:43:41;;;;;;;4.85;3.17;;;;;;;;;;5032221;28;20045;-72
2023/03/19 06:46:06;;;;;;;5.80;3.65;;;;;;;;;;5025868;28;20033;-68
2023/03/19 06:48:32;;;;;;;7.00;4.45;;;;;;;;;;5042976;28;20594;-72
2023/03/19 06:50:57;;;;;;;7.15;4.07;;;;;;;;;;5046249;28;20029;-72
2023/03/19 06:53:23;;;;;;;7.97;4.82;;;;;;;;;;5052596;28;20135;-69
2023/03/19 06:55:48;;;;;;;14.77;7.80;;;;;;;;;;5033727;28;20108;-65
2023/03/19 06:58:13;;;;;;;16.47;10.63;;;;;;;;;;5042856;28;20292;-68
2023/03/19 07:00:38;;;;;;;20.88;13.50;;;;;;;;;;5036192;28;20121;-66
2023/03/19 07:03:04;;;;;;;46.20;31.03;;;;;;;;;;5061985;28;20139;-68
2023/03/19 07:05:29;;;;;;;54.88;34.95;;;;;;;;;;5031267;28;20860;-71
2023/03/19 07:07:54;;;;;;;80.88;51.20;;;;;;;;;;5046254;28;20040;-68
2023/03/19 07:10:20;;;;;;;130.63;78.80;;;;;;;;;;5031272;28;20044;-65
2023/03/19 07:12:45;;;;;;;208.73;118.22;;;;;;;;;;5014555;28;20736;-69
2023/03/19 07:15:10;;;;;;;223.98;127.13;;;;;;;;;;5046457;28;20572;-66
2023/03/19 07:17:36;;;;;;;225.85;124.00;;;;;;;;;;5048992;28;20152;-71
2023/03/19 07:20:01;;;;;;;218.73;126.47;;;;;;;;;;5052344;28;20457;-71
2023/03/19 07:22:26;;;;;;;220.57;122.07;;;;;;;;;;5057746;28;20063;-71
2023/03/19 07:24:51;;;;;;;47.20;29.17;;;;;;;;;;5034256;28;20322;-70
2023/03/19 07:27:16;;;;;;;74.90;41.90;;;;;;;;;;5051993;28;20818;-67
2023/03/19 07:29:42;;;;;;;114.57;62.90;;;;;;;;;;5032721;28;20287;-68
2023/03/19 07:32:08;;;;;;;25.53;15.33;;;;;;;;;;5044523;28;20283;-66
2023/03/19 07:34:33;;;;;;;32.78;18.33;;;;;;;;;;5007058;28;20291;-65
2023/03/19 07:36:59;;;;;;;46.00;27.03;;;;;;;;;;5008577;28;20522;-67
2023/03/19 07:39:24;;;;;;;78.80;43.97;;;;;;;;;;5019796;28;20276;-66
2023/03/19 07:41:50;;;;;;;101.28;55.15;;;;;;;;;;5012021;28;20284;-69
2023/03/19 07:44:15;;;;;;;112.47;59.90;;;;;;;;;;5045518;28;20044;-66
2023/03/19 07:46:40;;;;;;;112.75;62.05;;;;;;;;;;5049307;28;20055;-65
2023/03/19 07:49:06;;;;;;;112.28;64.13;;;;;;;;;;5034337;28;20051;-68
2023/03/19 07:51:31;;;;;;;107.65;60.70;;;;;;;;;;5035799;28;20037;-71
2023/03/19 07:53:57;;;;;;;107.00;61.03;;;;;;;;;;5034446;28;20113;-67
2023/03/19 07:56:22;;;;;;;105.47;62.33;;;;;;;;;;5042637;28;20369;-78
2023/03/19 07:58:47;;;;;;;106.70;61.10;;;;;;;;;;5047495;28;20327;-67
2023/03/19 08:01:12;;;;;;;102.80;59.33;;;;;;;;;;5011267;28;20323;-67
2023/03/19 08:03:38;;;;;;;97.67;58.87;;;;;;;;;;5041972;28;20287;-71
2023/03/19 08:06:04;;;;;;;100.80;56.47;;;;;;;;;;5054321;28;20279;-66
2023/03/19 08:08:29;;;;;;;99.13;55.97;;;;;;;;;;5027116;28;20128;-70
2023/03/19 08:10:55;;;;;;;98.07;56.40;;;;;;;;;;5016934;28;20127;-69
2023/03/19 08:13:20;;;;;;;90.40;52.97;;;;;;;;;;5018108;28;20297;-65
2023/03/19 08:15:45;;;;;;;93.85;53.47;;;;;;;;;;5020263;28;20045;-69
2023/03/19 08:18:11;;;;;;;93.70;52.20;;;;;;;;;;5052738;28;20041;-67
2023/03/19 08:20:36;;;;;;;97.32;55.25;;;;;;;;;;5019113;28;20272;-71
2023/03/19 08:23:01;;;;;;;89.65;52.72;;;;;;;;;;5022104;28;20042;-67
2023/03/19 08:25:31;;;;;;;87.63;51.10;;;;;;;;;;5016735;28;20045;-67
2023/03/19 08:27:56;;;;;;;86.50;50.05;;;;;;;;;;5027053;28;20311;-66
2023/03/19 08:30:21;;;;;;;83.80;48.90;;;;;;;;;;5019098;28;20490;-64
2023/03/19 08:32:48;;;;;;;80.17;49.30;;;;;;;;;;5043121;28;20298;-67
2023/03/19 08:35:13;;;;;;;85.80;49.78;;;;;;;;;;5038370;28;20280;-65
2023/03/19 08:37:38;;;;;;;81.03;47.53;;;;;;;;;;5024953;28;20036;-70
2023/03/19 08:40:04;;;;;;;81.17;46.90;;;;;;;;;;4996928;28;20276;-68
2023/03/19 08:42:29;;;;;;;77.28;46.45;;;;;;;;;;5008428;28;20275;-65
2023/03/19 08:44:54;;;;;;;73.22;44.75;;;;;;;;;;5024506;28;20065;-68
2023/03/19 08:47:23;;;;;;;71.00;43.70;;;;;;;;;;5010889;28;20052;-66
2023/03/19 08:49:48;;;;;;;75.32;44.35;;;;;;;;;;5021168;28;20311;-65
2023/03/19 08:52:13;;;;;;;73.03;42.17;;;;;;;;;;5021583;28;20529;-65
2023/03/19 08:54:39;;;;;;;73.07;44.13;;;;;;;;;;5022099;28;20295;-67
2023/03/19 08:57:04;;;;;;;73.18;41.47;;;;;;;;;;5012515;28;20427;-70
2023/03/19 08:59:30;;;;;;;69.80;42.17;;;;;;;;;;5017874;28;20079;-66
2023/03/19 09:01:55;;;;;;;68.30;41.80;;;;;;;;;;5028587;28;20050;-65
2023/03/19 09:04:21;;;;;;;66.40;40.70;;;;;;;;;;5048728;28;20041;-69
2023/03/19 09:06:49;;;;;;;64.80;38.63;;;;;;;;;;5033191;28;20278;-69
2023/03/19 09:09:15;;;;;;;65.72;39.67;;;;;;;;;;5052938;28;20291;-66
2023/03/19 09:11:40;;;;;;;65.65;40.25;;;;;;;;;;5046232;28;20033;-62
2023/03/19 09:14:06;;;;;;;60.92;38.00;;;;;;;;;;5030807;28;20060;-71
2023/03/19 09:16:31;;;;;;;64.32;38.88;;;;;;;;;;5061341;28;20037;-66
2023/03/19 09:18:57;;;;;;;66.30;39.10;;;;;;;;;;5053827;28;20498;-66
2023/03/19 09:21:22;;;;;;;58.30;36.50;;;;;;;;;;5051017;28;20645;-67
2023/03/19 09:23:47;;;;;;;65.37;39.33;;;;;;;;;;5056956;28;20881;-66
2023/03/19 09:26:12;;;;;;;57.70;36.63;;;;;;;;;;5034191;28;20272;-72
2023/03/19 09:28:38;;;;;;;57.30;35.97;;;;;;;;;;5048980;28;20286;-71
2023/03/19 09:31:06;;;;;;;55.15;34.67;;;;;;;;;;5030632;28;20041;-68
2023/03/19 09:33:31;;;;;;;60.33;35.40;;;;;;;;;;5020092;28;20056;-68
2023/03/19 09:35:56;;;;;;;54.22;35.20;;;;;;;;;;5043786;28;20033;-67
2023/03/19 09:38:21;;;;;;;54.13;34.17;;;;;;;;;;5018519;28;20779;-65
2023/03/19 09:40:48;;;;;;;53.70;33.50;;;;;;;;;;5017993;28;20028;-68
2023/03/19 09:43:33;;;;;;;54.38;33.60;;;;;;;;;;5040145;28;20413;-68
2023/03/19 09:45:58;;;;;;;50.47;32.55;;;;;;;;;;5023480;28;20048;-67
2023/03/19 09:48:30;;;;;;;50.53;32.97;;;;;;;;;;5020583;28;20441;-63
2023/03/19 09:50:55;;;;;;;53.40;32.35;;;;;;;;;;5007366;28;20364;-65
2023/03/19 09:53:27;;;;;;;52.13;31.67;;;;;;;;;;5026269;28;20437;-69
2023/03/19 09:55:53;;;;;;;47.65;31.13;;;;;;;;;;5036262;28;20037;-65
2023/03/19 09:58:19;;;;;;;48.22;31.17;;;;;;;;;;5027648;28;20044;-67
2023/03/19 10:00:48;;;;;;;49.55;31.60;;;;;;;;;;5006270;28;20067;-69
2023/03/19 10:03:14;;;;;;;46.77;29.77;;;;;;;;;;5010691;28;20045;-66
2023/03/19 10:05:39;;;;;;;47.97;30.80;;;;;;;;;;5018560;28;20140;-67
2023/03/19 10:08:04;;;;;;;48.60;30.57;;;;;;;;;;5011518;28;20165;-70
2023/03/19 10:10:32;;;;;;;46.10;29.10;;;;;;;;;;5032922;28;20295;-69
2023/03/19 10:13:30;;;;;;;28.55;18.77;;;;;;;;;;5027147;28;20053;-65
2023/03/19 10:15:55;;;;;;;14.55;10.23;;;;;;;;;;5000722;28;20102;-67
2023/03/19 10:18:27;;;;;;;21.33;13.63;;;;;;;;;;5005089;28;20033;-63
2023/03/19 10:20:57;;;;;;;24.00;15.70;;;;;;;;;;5058501;28;20307;-62
2023/03/19 10:23:25;;;;;;;25.88;17.27;;;;;;;;;;5050911;28;20052;-65
2023/03/19 10:25:51;;;;;;;26.67;16.92;;;;;;;;;;5050040;28;20087;-63
2023/03/19 10:28:17;;;;;;;28.35;18.38;;;;;;;;;;5060220;28;20090;-63
2023/03/19 10:31:03;;;;;;;24.58;16.75;;;;;;;;;;5056494;28;20036;-62
2023/03/19 10:33:41;;;;;;;25.33;17.13;;;;;;;;;;5014933;28;20192;-63
2023/03/19 10:36:08;;;;;;;28.20;17.10;;;;;;;;;;5026970;28;20048;-68
2023/03/19 10:38:37;;;;;;;30.88;20.15;;;;;;;;;;5016735;28;20044;-62
2023/03/19 10:41:02;;;;;;;30.58;19.48;;;;;;;;;;5014357;28;20041;-70
2023/03/19 10:43:28;;;;;;;30.97;20.10;;;;;;;;;;5029898;28;20075;-68
2023/03/19 10:45:53;;;;;;;32.22;20.42;;;;;;;;;;5019742;28;20291;-68
2023/03/19 10:48:18;;;;;;;30.05;19.80;;;;;;;;;;5055463;28;20037;-70
2023/03/19 10:50:43;;;;;;;29.38;18.58;;;;;;;;;;5034521;28;20033;-64
2023/03/19 10:53:12;;;;;;;28.37;19.23;;;;;;;;;;5066965;28;20052;-66
2023/03/19 10:55:37;;;;;;;28.05;18.52;;;;;;;;;;5039280;28;20044;-68
2023/03/19 10:58:03;;;;;;;26.23;18.10;;;;;;;;;;5026281;28;20143;-70
2023/03/19 11:00:32;;;;;;;28.92;19.17;;;;;;;;;;5029951;28;20314;-66
2023/03/19 11:02:58;;;;;;;27.73;19.00;;;;;;;;;;5027276;28;20141;-71
2023/03/19 11:05:24;;;;;;;26.25;18.17;;;;;;;;;;4982173;28;20128;-71
2023/03/19 11:07:50;;;;;;;26.13;17.45;;;;;;;;;;5001647;28;20092;-64
2023/03/19 11:10:15;;;;;;;28.63;18.20;;;;;;;;;;4994797;28;20555;-68
2023/03/19 11:12:41;;;;;;;25.15;17.55;;;;;;;;;;4971618;28;20070;-66
2023/03/19 11:15:20;;;;;;;28.23;17.40;;;;;;;;;;4981350;28;20487;-75
2023/03/19 11:17:46;;;;;;;25.98;17.98;;;;;;;;;;4977027;28;20037;-71
2023/03/19 11:20:14;;;;;;;25.05;16.45;;;;;;;;;;5026331;28;20044;-72
2023/03/19 11:22:40;;;;;;;24.70;17.23;;;;;;;;;;5022670;28;20041;-70
2023/03/19 11:25:17;;;;;;;23.08;16.50;;;;;;;;;;4989318;28;20030;-67
2023/03/19 11:27:42;;;;;;;27.05;17.42;;;;;;;;;;5005003;28;20033;-70
2023/03/19 11:30:27;;;;;;;23.30;16.27;;;;;;;;;;5034248;28;20047;-71
2023/03/19 11:32:56;;;;;;;24.77;16.85;;;;;;;;;;5034518;28;20362;-72
2023/03/19 11:35:40;;;;;;;22.92;16.05;;;;;;;;;;5024279;28;20429;-68
2023/03/19 11:38:06;;;;;;;23.65;16.88;;;;;;;;;;5029186;28;20037;-69
2023/03/19 11:40:42;;;;;;;22.90;15.82;;;;;;;;;;5032833;28;20600;-70
2023/03/19 11:43:10;;;;;;;23.80;15.93;;;;;;;;;;5034142;28;20037;-69
2023/03/19 11:45:48;;;;;;;24.23;15.98;;;;;;;;;;5053769;28;20178;-65
2023/03/19 11:48:19;;;;;;;23.55;16.35;;;;;;;;;;5008133;28;20072;-67
2023/03/19 11:50:45;;;;;;;21.67;14.85;;;;;;;;;;5038777;28;20040;-66
2023/03/19 11:53:17;;;;;;;23.92;15.32;;;;;;;;;;5045332;28;20041;-70
2023/03/19 11:55:44;;;;;;;22.65;15.55;;;;;;;;;;5005051;28;20029;-68
2023/03/19 11:58:12;;;;;;;22.70;15.18;;;;;;;;;;5052331;28;20025;-72
2023/03/19 12:00:40;;;;;;;21.73;15.02;;;;;;;;;;5043803;28;20040;-74
2023/03/19 12:03:24;;;;;;;22.02;15.52;;;;;;;;;;5046483;28;20053;-69
2023/03/19 12:05:55;;;;;;;19.20;13.93;;;;;;;;;;5042843;28;20131;-69
2023/03/19 12:08:27;;;;;;;20.83;14.23;;;;;;;;;;5045526;28;20060;-68
2023/03/19 12:10:56;;;;;;;20.50;14.40;;;;;;;;;;5042189;28;20051;-68
2023/03/19 12:13:24;;;;;;;21.98;15.02;;;;;;;;;;5042607;28;21275;-71
2023/03/19 12:15:52;;;;;;;21.05;14.65;;;;;;;;;;5029643;28;20508;-64
2023/03/19 12:18:18;;;;;;;20.48;14.60;;;;;;;;;;5024996;28;20753;-68
2023/03/19 12:20:56;;;;;;;19.17;13.63;;;;;;;;;;5027450;28;20155;-64
2023/03/19 12:23:40;;;;;;;19.92;13.88;;;;;;;;;;5009564;28;20044;-64
2023/03/19 12:26:07;;;;;;;19.63;13.32;;;;;;;;;;5026306;28;20029;-63
2023/03/19 12:28:53;;;;;;;19.63;13.20;;;;;;;;;;5010381;28;20028;-66
2023/03/19 12:31:24;;;;;;;18.27;13.10;;;;;;;;;;5031704;28;20041;-66
2023/03/19 12:33:49;;;;;;;17.38;12.70;;;;;;;;;;5013929;28;20486;-67
2023/03/19 12:36:17;;;;;;;19.33;13.13;;;;;;;;;;5033715;28;20029;-63
2023/03/19 12:38:50;;;;;;;17.00;12.18;;;;;;;;;;4999031;28;20433;-64
2023/03/19 12:41:26;;;;;;;18.58;12.82;;;;;;;;;;5018747;28;20049;-65
2023/03/19 12:43:53;;;;;;;17.05;12.38;;;;;;;;;;5000039;28;20048;-65
2023/03/19 12:46:22;;;;;;;18.92;12.35;;;;;;;;;;5014463;28;20256;-66
2023/03/19 12:48:50;;;;;;;17.65;12.20;;;;;;;;;;5033132;28;20045;-66
2023/03/19 12:51:16;;;;;;;17.15;12.15;;;;;;;;;;5014812;28;20411;-62
2023/03/19 12:53:53;;;;;;;18.17;12.23;;;;;;;;;;5021643;28;20052;-66
2023/03/19 12:56:44;;;;;;;17.10;12.00;;;;;;;;;;5003188;28;20063;-68
2023/03/19 12:59:13;;;;;;;18.35;12.40;;;;;;;;;;4977852;28;20038;-66
2023/03/19 13:01:44;;;;;;;15.90;11.65;;;;;;;;;;5036031;28;20050;-69
2023/03/19 13:04:18;;;;;;;16.80;11.70;;;;;;;;;;5004602;28;20056;-68
2023/03/19 13:06:48;;;;;;;17.42;11.63;;;;;;;;;;5016168;28;20541;-64
2023/03/19 13:09:27;;;;;;;17.63;12.85;;;;;;;;;;5014843;28;20036;-67
2023/03/19 13:12:00;;;;;;;14.60;11.03;;;;;;;;;;5022664;28;20102;-66
2023/03/19 13:14:29;;;;;;;15.20;11.23;;;;;;;;;;5016651;28;20063;-65
2023/03/19 13:17:03;;;;;;;16.02;11.32;;;;;;;;;;5000688;28;20139;-63
2023/03/19 13:19:51;;;;;;;16.33;11.40;;;;;;;;;;5034931;28;20145;-65
2023/03/19 13:22:18;;;;;;;15.55;11.23;;;;;;;;;;5014390;28;20096;-67
2023/03/19 13:24:44;;;;;;;16.83;11.48;;;;;;;;;;5045141;28;20037;-69
2023/03/19 13:27:15;;;;;;;15.68;10.88;;;;;;;;;;5033004;28;20162;-70
2023/03/19 13:29:51;;;;;;;14.52;10.77;;;;;;;;;;5033137;28;20119;-66
2023/03/19 13:32:28;;;;;;;16.40;10.88;;;;;;;;;;5031238;28;20175;-71
2023/03/19 13:35:07;;;;;;;15.13;11.00;;;;;;;;;;5047308;28;20068;-69
2023/03/19 13:37:32;;;;;;;17.92;11.30;;;;;;;;;;5012240;28;20044;-68
2023/03/19 13:39:58;;;;;;;11.13;7.80;;;;;;;;;;5015065;28;20036;-65
2023/03/19 13:42:41;;;;;;;10.47;7.60;;;;;;;;;;5028064;28;20403;-70
2023/03/19 13:45:18;;;;;;;11.88;7.15;;;;;;;;;;5028832;28;20414;-69
2023/03/19 13:47:44;;;;;;;10.30;7.20;;;;;;;;;;5058066;28;20047;-68
2023/03/19 13:50:15;;;;;;;11.33;7.80;;;;;;;;;;5046616;28;20029;-69
2023/03/19 13:52:43;;;;;;;10.38;7.03;;;;;;;;;;5038253;28;20334;-65
2023/03/19 13:55:27;;;;;;;10.20;6.40;;;;;;;;;;5023673;28;20233;-64
2023/03/19 13:58:11;;;;;;;9.90;7.00;;;;;;;;;;5031241;28;20465;-63
2023/03/19 14:00:42;;;;;;;9.63;6.00;;;;;;;;;;5062550;28;20136;-64
2023/03/19 14:03:33;;;;;;;8.52;6.38;;;;;;;;;;5047795;28;20128;-68
2023/03/19 14:05:59;;;;;;;9.77;6.10;;;;;;;;;;5036875;28;20033;-65
2023/03/19 14:08:28;;;;;;;7.80;5.33;;;;;;;;;;5046028;28;20036;-68
2023/03/19 14:10:57;;;;;;;8.07;5.53;;;;;;;;;;5051620;28;20291;-67
2023/03/19 14:13:30;;;;;;;7.67;5.40;;;;;;;;;;5052333;28;20032;-67
2023/03/19 14:15:59;;;;;;;8.57;5.20;;;;;;;;;;5049798;28;20150;-67
2023/03/19 14:18:25;;;;;;;9.45;6.40;;;;;;;;;;5031688;28;20044;-63
2023/03/19 14:21:03;;;;;;;8.70;5.50;;;;;;;;;;5033073;28;20128;-66
2023/03/19 14:23:30;;;;;;;8.40;5.53;;;;;;;;;;5031731;28;20292;-65
2023/03/19 14:26:14;;;;;;;6.53;4.93;;;;;;;;;;5013474;28;20040;-69
2023/03/19 14:28:58;;;;;;;9.70;5.13;;;;;;;;;;5030582;28;20064;-63
2023/03/19 14:31:29;;;;;;;6.57;4.78;;;;;;;;;;5013626;28;20056;-69